KDWH

David Wayne Hooks Memorial Airport

Houston, Texas, USA
METAR KDWH 171353Z 00000KT 3SM BR CLR 08/08 A3026 RMK AO2 SLP246 T00830083
Observed Flight Rules
Dec-17 @ 13:53 UTC (35 minutes ago) Marginal Visual Flight Rules
Visibility Clouds Conditions
3 miles
  • Clear skies
  • Mist
Temperatures Readings
Current 8°C / 46°F
Dewpoint 8°C / 46°F
Humidity 100%
Altimeter 30.26" Hg
Pressure 1024.6 hPa
Elevation 46
METAR KDWH 171353Z 00000KT 3SM BR CLR 08/08 A3026 RMK AO2 SLP246 T00830083
Observed Flight Rules
Dec-17 @ 13:53 UTC
(35 minutes ago)
MVFR
Clouds
  • Clear skies
Conditions
  • Mist
Temperature Dewpoint
8°C / 46°F 8°C / 46°F
Humidity Altimeter Pressure
100% 30.26" Hg 1024.6 hPa